Time;durP1;ratioP1;P1;durP2;ratioP2;P2;SDS_P1;SDS_P2;PMS_P1;PMS_P2;Temp;Humidity;BMP_temperature;BMP_pressure;BME280_temperature;BME280_humidity;BME280_pressure;Samples;Min_cycle;Max_cycle;Signal;HPM_P1;HPM_P2
2021/11/20 00:01:06;;;;;;;11.40;5.10;;;;;;;11.53;71.76;100733.85;108398;1283;21981;-75
2021/11/20 00:03:38;;;;;;;9.40;4.70;;;;;;;11.53;71.63;100738.94;108102;1288;22943;-75
2021/11/20 00:06:08;;;;;;;6.20;4.70;;;;;;;11.53;71.62;100741.58;108173;1285;23087;-74
2021/11/20 00:08:37;;;;;;;10.20;5.70;;;;;;;11.52;71.62;100742.68;108373;1285;22016;-75
2021/11/20 00:11:10;;;;;;;6.50;4.60;;;;;;;11.53;71.48;100739.81;108413;1284;23039;-75
2021/11/20 00:13:42;;;;;;;9.30;5.30;;;;;;;11.53;71.51;100749.98;108350;1285;22004;-75
2021/11/20 00:16:13;;;;;;;10.50;6.90;;;;;;;11.52;71.51;100745.36;108438;1285;22407;-75
2021/11/20 00:18:43;;;;;;;10.10;6.20;;;;;;;11.52;71.56;100748.17;108484;1285;23789;-76
2021/11/20 00:21:29;;;;;;;8.90;5.60;;;;;;;11.53;71.51;100758.54;108323;1278;22035;-76
2021/11/20 00:24:03;;;;;;;10.80;5.80;;;;;;;11.52;71.50;100752.45;108788;1276;22446;-73
2021/11/20 00:26:35;;;;;;;7.60;5.10;;;;;;;11.52;71.57;100748.08;108727;1278;24247;-74
2021/11/20 00:32:01;;;;;;;9.40;6.00;;;;;;;11.43;71.68;100763.48;108880;1278;22039;-75
2021/11/20 00:34:32;;;;;;;7.70;5.50;;;;;;;11.42;71.89;100761.09;108783;1277;23076;-75
2021/11/20 00:37:02;;;;;;;7.70;4.70;;;;;;;11.43;71.78;100756.39;108683;1276;22698;-76
2021/11/20 00:39:33;;;;;;;8.40;5.00;;;;;;;11.45;71.89;100744.22;108919;1276;22007;-75
2021/11/20 00:42:09;;;;;;;9.50;4.60;;;;;;;11.46;71.89;100731.27;108736;1278;22709;-75
2021/11/20 00:44:39;;;;;;;5.80;4.40;;;;;;;11.47;71.81;100730.07;108772;1277;21977;-75
2021/11/20 00:47:09;;;;;;;10.80;5.10;;;;;;;11.46;71.85;100718.02;108744;1278;22009;-75
2021/11/20 00:49:38;;;;;;;11.80;5.20;;;;;;;11.44;71.86;100710.70;108701;1277;21963;-75
2021/11/20 00:52:08;;;;;;;6.10;4.70;;;;;;;11.42;71.82;100712.09;108427;1283;22010;-74
2021/11/20 00:54:39;;;;;;;7.80;5.10;;;;;;;11.40;71.83;100708.48;108399;1285;22164;-75
2021/11/20 00:57:11;;;;;;;8.10;5.90;;;;;;;11.37;71.81;100698.43;108431;1282;23648;-76
2021/11/20 00:59:41;;;;;;;8.80;5.30;;;;;;;11.34;71.91;100695.02;108397;1284;23126;-76
2021/11/20 01:02:11;;;;;;;9.60;5.90;;;;;;;11.31;72.04;100701.46;108556;1283;22126;-74
2021/11/20 01:04:41;;;;;;;10.40;4.70;;;;;;;11.30;72.21;100699.77;108546;1282;21986;-74
2021/11/20 01:07:12;;;;;;;7.00;5.20;;;;;;;11.29;72.24;100694.42;108532;1283;23621;-75
2021/11/20 01:09:45;;;;;;;7.50;5.30;;;;;;;11.30;72.44;100685.73;108520;1278;22218;-74
2021/11/20 01:12:21;;;;;;;8.80;5.40;;;;;;;11.29;72.48;100698.77;108868;1278;21982;-75
2021/11/20 01:14:53;;;;;;;11.00;4.80;;;;;;;11.30;72.54;100691.80;108920;1278;22000;-75
2021/11/20 01:17:26;;;;;;;9.70;6.30;;;;;;;11.32;72.58;100695.18;108876;1275;23672;-75
2021/11/20 01:19:55;;;;;;;11.30;5.30;;;;;;;11.31;72.68;100703.75;108699;1278;23689;-75
2021/11/20 01:22:42;;;;;;;6.70;5.10;;;;;;;11.32;72.79;100712.44;108807;1278;21987;-75
2021/11/20 01:25:38;;;;;;;7.20;5.20;;;;;;;11.35;72.81;100707.24;108822;1276;21971;-75
2021/11/20 01:28:33;;;;;;;8.50;5.50;;;;;;;11.35;72.75;100695.02;108742;1277;22930;-75
2021/11/20 01:31:12;;;;;;;8.70;5.60;;;;;;;11.36;72.90;100723.13;108831;1277;22087;-75
2021/11/20 01:33:47;;;;;;;9.50;4.90;;;;;;;11.39;72.97;100712.26;108754;1278;21983;-75
2021/11/20 01:36:24;;;;;;;7.60;4.60;;;;;;;11.41;72.98;100704.82;108825;1278;21981;-75
2021/11/20 01:38:57;;;;;;;9.80;5.50;;;;;;;11.42;72.84;100716.80;108755;1277;22054;-75
2021/11/20 01:41:35;;;;;;;7.90;6.10;;;;;;;11.44;72.78;100716.32;108664;1278;22728;-75
2021/11/20 01:44:51;;;;;;;7.60;5.20;;;;;;;11.45;72.81;100719.72;108700;1278;21973;-75
2021/11/20 01:47:33;;;;;;;8.50;5.60;;;;;;;11.45;72.77;100712.45;108800;1276;22081;-75
2021/11/20 01:50:19;;;;;;;8.90;5.90;;;;;;;11.46;72.87;100712.02;108878;1276;24345;-75
2021/11/20 01:53:00;;;;;;;7.10;5.40;;;;;;;11.47;72.76;100708.71;108912;1275;22914;-75
2021/11/20 01:55:52;;;;;;;5.90;5.20;;;;;;;11.48;72.80;100712.82;108444;1283;21987;-75
2021/11/20 01:58:58;;;;;;;7.30;4.60;;;;;;;11.49;72.76;100707.86;108365;1284;22072;-75
2021/11/20 02:02:25;;;;;;;7.20;4.50;;;;;;;11.48;72.75;100707.36;108506;1283;22019;-75
2021/11/20 02:05:12;;;;;;;5.10;4.60;;;;;;;11.47;72.74;100714.01;108560;1282;22956;-76
2021/11/20 02:08:43;;;;;;;7.50;5.30;;;;;;;11.50;72.74;100713.91;108454;1284;21977;-75
2021/11/20 02:11:27;;;;;;;12.50;5.10;;;;;;;11.51;72.77;100733.89;108269;1288;21988;-75
2021/11/20 02:13:57;;;;;;;7.30;4.50;;;;;;;11.52;72.67;100741.50;108248;1284;21979;-75
2021/11/20 02:16:41;;;;;;;7.40;4.90;;;;;;;11.54;72.61;100725.02;108277;1284;22043;-74
2021/11/20 02:19:22;;;;;;;7.20;4.30;;;;;;;11.57;72.55;100732.40;108389;1283;22149;-75
2021/11/20 02:22:31;;;;;;;7.40;5.40;;;;;;;11.57;72.43;100734.28;108425;1284;22001;-75
2021/11/20 02:25:00;;;;;;;8.70;5.40;;;;;;;11.56;72.30;100746.73;108155;1289;22064;-75
2021/11/20 02:28:06;;;;;;;7.50;5.00;;;;;;;11.54;72.25;100739.14;107202;1295;22014;-75
2021/11/20 02:30:48;;;;;;;8.40;5.60;;;;;;;11.54;72.23;100729.82;107103;1300;21693;-76
2021/11/20 02:33:23;;;;;;;6.40;4.80;;;;;;;11.53;72.25;100727.30;107038;1301;22002;-75
2021/11/20 02:35:58;;;;;;;6.70;5.20;;;;;;;11.51;72.26;100728.55;107096;1301;21998;-75
2021/11/20 02:38:38;;;;;;;6.90;4.80;;;;;;;11.50;72.13;100730.41;107233;1298;23190;-74
2021/11/20 02:41:13;;;;;;;10.10;5.80;;;;;;;11.48;72.13;100720.30;107206;1300;22116;-74
2021/11/20 02:43:49;;;;;;;7.80;5.70;;;;;;;11.45;72.29;100719.17;107529;1294;22000;-75
2021/11/20 02:46:27;;;;;;;7.80;5.70;;;;;;;11.42;72.29;100719.00;107812;1287;22010;-75
2021/11/20 02:49:05;;;;;;;8.20;5.90;;;;;;;11.39;72.27;100733.58;108314;1285;23615;-75
2021/11/20 02:51:42;;;;;;;7.60;5.70;;;;;;;11.36;72.42;100733.04;108344;1284;22036;-76
2021/11/20 02:54:21;;;;;;;7.10;5.40;;;;;;;11.33;72.42;100720.60;108353;1283;23692;-76
2021/11/20 02:57:09;;;;;;;7.20;5.50;;;;;;;11.30;72.70;100709.07;108452;1284;22468;-75
2021/11/20 02:59:40;;;;;;;7.40;5.60;;;;;;;11.27;72.73;100720.90;108271;1285;23643;-75
2021/11/20 03:02:13;;;;;;;8.30;5.10;;;;;;;11.26;72.90;100722.45;108368;1277;21935;-75
2021/11/20 03:04:45;;;;;;;9.60;5.20;;;;;;;11.25;72.93;100721.15;108550;1279;24390;-75
2021/11/20 03:07:15;;;;;;;11.80;5.70;;;;;;;11.25;72.87;100718.48;108609;1278;22763;-75
2021/11/20 03:09:46;;;;;;;8.30;6.10;;;;;;;11.25;72.91;100714.98;108733;1278;24038;-75
2021/11/20 03:12:25;;;;;;;6.20;5.10;;;;;;;11.24;72.99;100714.14;108711;1278;22102;-75
2021/11/20 03:15:00;;;;;;;6.70;5.50;;;;;;;11.24;73.00;100718.08;108785;1278;22011;-75
2021/11/20 03:17:33;;;;;;;7.90;4.80;;;;;;;11.24;73.05;100722.40;108687;1278;23576;-74
2021/11/20 03:20:07;;;;;;;7.90;4.90;;;;;;;11.24;73.00;100722.08;108676;1278;23918;-73
2021/11/20 03:22:50;;;;;;;20.90;5.60;;;;;;;11.24;73.03;100728.62;108762;1277;21976;-75
2021/11/20 03:25:20;;;;;;;10.00;4.70;;;;;;;11.24;73.06;100728.80;108718;1279;22007;-75
2021/11/20 03:27:51;;;;;;;7.40;5.00;;;;;;;11.24;73.15;100736.52;108843;1278;22033;-75
2021/11/20 03:30:21;;;;;;;6.60;4.40;;;;;;;11.25;73.22;100735.38;108918;1278;23685;-76
2021/11/20 03:32:51;;;;;;;6.70;3.90;;;;;;;11.27;73.13;100733.80;108831;1278;21982;-75
2021/11/20 03:35:24;;;;;;;10.50;4.40;;;;;;;11.27;73.18;100733.95;108825;1278;23585;-75
2021/11/20 03:37:56;;;;;;;7.10;4.70;;;;;;;11.28;73.13;100733.66;108780;1278;22055;-75
2021/11/20 03:40:29;;;;;;;7.80;4.60;;;;;;;11.29;73.15;100733.16;108750;1278;21983;-75
2021/11/20 03:42:59;;;;;;;7.40;4.60;;;;;;;11.31;73.06;100737.79;108439;1283;23775;-75
2021/11/20 03:45:31;;;;;;;10.20;4.70;;;;;;;11.31;73.06;100746.79;108419;1283;22017;-75
2021/11/20 03:48:05;;;;;;;8.60;4.80;;;;;;;11.32;73.05;100750.73;108483;1283;23787;-74
2021/11/20 03:50:38;;;;;;;8.20;4.20;;;;;;;11.33;73.01;100748.52;108478;1282;23085;-74
2021/11/20 03:53:08;;;;;;;;;;;;;;;11.34;73.08;100751.35;108453;1285;22135;-74
2021/11/20 03:55:42;;;;;;;7.30;4.30;;;;;;;11.26;73.02;100750.09;108371;1283;22041;-74
2021/11/20 03:58:14;;;;;;;6.00;4.50;;;;;;;11.26;73.05;100752.01;108510;1283;22126;-75
2021/11/20 04:00:51;;;;;;;8.20;4.40;;;;;;;11.31;73.20;100754.45;108519;1278;23749;-76
2021/11/20 04:03:21;;;;;;;6.20;3.80;;;;;;;11.34;73.07;100754.10;108793;1276;21980;-76
2021/11/20 04:05:56;;;;;;;7.40;4.40;;;;;;;11.37;73.13;100756.94;108822;1278;23030;-75
2021/11/20 04:08:27;;;;;;;7.70;4.00;;;;;;;11.39;72.97;100761.98;108751;1278;22273;-75
2021/11/20 04:11:02;;;;;;;6.80;4.20;;;;;;;11.42;73.04;100764.83;108533;1278;23029;-75
2021/11/20 04:13:39;;;;;;;10.60;3.90;;;;;;;11.43;72.98;100764.70;109056;1277;22043;-75
2021/11/20 04:16:12;;;;;;;6.60;3.70;;;;;;;11.44;73.01;100777.00;108644;1279;23577;-75
2021/11/20 04:18:44;;;;;;;7.20;4.80;;;;;;;11.46;72.96;100771.67;108835;1278;21993;-75
2021/11/20 04:21:16;;;;;;;5.50;3.60;;;;;;;11.48;72.88;100773.66;108890;1278;22006;-73
2021/11/20 04:23:48;;;;;;;5.80;3.90;;;;;;;11.50;72.80;100767.15;108512;1281;22020;-74
2021/11/20 04:26:22;;;;;;;8.40;3.40;;;;;;;11.50;72.79;100769.73;108559;1282;22508;-74
2021/11/20 04:28:51;;;;;;;5.50;3.80;;;;;;;11.52;72.77;100766.42;108489;1281;22070;-74
2021/11/20 04:31:30;;;;;;;10.10;4.00;;;;;;;11.51;72.64;100769.60;108254;1288;22145;-74
2021/11/20 04:34:00;;;;;;;5.60;3.60;;;;;;;11.51;72.61;100771.41;108121;1288;22004;-75
2021/11/20 04:36:30;;;;;;;6.60;4.00;;;;;;;11.52;72.67;100774.30;108187;1287;22109;-75
2021/11/20 04:39:00;;;;;;;6.00;3.30;;;;;;;11.54;72.67;100778.89;108184;1287;22008;-75
2021/11/20 04:41:29;;;;;;;6.50;3.70;;;;;;;11.53;72.54;100779.46;108223;1283;22013;-75
2021/11/20 04:43:59;;;;;;;10.00;4.20;;;;;;;11.54;72.48;100776.91;108402;1285;21989;-74
2021/11/20 04:46:29;;;;;;;6.60;3.60;;;;;;;11.54;72.53;100776.39;108045;1289;23593;-74
2021/11/20 04:48:58;;;;;;;6.70;3.50;;;;;;;11.55;72.52;100778.09;107885;1289;22022;-75
2021/11/20 04:51:29;;;;;;;6.90;4.10;;;;;;;11.53;72.51;100770.27;108177;1287;23773;-74
2021/11/20 04:53:59;;;;;;;8.10;4.20;;;;;;;11.53;72.54;100769.08;108124;1288;22054;-75
2021/11/20 04:56:29;;;;;;;6.40;3.40;;;;;;;11.53;72.56;100770.47;108247;1286;22017;-75
2021/11/20 04:58:59;;;;;;;6.50;3.50;;;;;;;11.55;72.44;100772.62;107908;1291;23701;-74
2021/11/20 05:01:30;;;;;;;5.00;3.10;;;;;;;11.55;72.40;100774.70;107920;1291;22285;-74
2021/11/20 05:04:03;;;;;;;5.40;3.60;;;;;;;11.56;72.46;100775.90;107555;1292;23187;-74
2021/11/20 05:06:40;;;;;;;7.50;3.40;;;;;;;11.56;72.53;100776.06;107905;1290;21991;-73
2021/11/20 05:09:11;;;;;;;5.70;3.80;;;;;;;11.55;72.52;100777.34;108062;1291;22001;-74
2021/11/20 05:11:48;;;;;;;7.20;3.40;;;;;;;11.52;72.39;100776.21;107568;1295;22034;-74
2021/11/20 05:14:18;;;;;;;6.40;4.20;;;;;;;11.52;72.47;100778.07;107687;1292;23141;-75
2021/11/20 05:16:49;;;;;;;6.90;3.80;;;;;;;11.52;72.50;100781.77;107755;1288;22981;-74
2021/11/20 05:19:18;;;;;;;6.10;3.70;;;;;;;11.49;72.56;100789.29;108023;1289;23184;-75
2021/11/20 05:21:48;;;;;;;8.90;4.40;;;;;;;11.47;72.56;100791.58;108337;1283;23061;-75
2021/11/20 05:24:21;;;;;;;6.50;4.40;;;;;;;11.46;72.59;100797.17;108435;1283;22001;-75
2021/11/20 05:26:54;;;;;;;;;;;;;;;11.45;72.71;100795.32;108441;1283;23574;-74
2021/11/20 05:31:59;;;;;;;7.70;5.70;;;;;;;11.36;72.97;100793.34;108879;1277;23717;-74
2021/11/20 05:34:31;;;;;;;7.40;4.80;;;;;;;11.38;73.06;100798.05;108499;1283;22076;-75
2021/11/20 05:37:04;;;;;;;6.40;4.30;;;;;;;11.39;72.90;100801.16;108450;1283;22104;-74
2021/11/20 05:39:36;;;;;;;10.20;5.50;;;;;;;11.38;73.19;100802.05;108418;1284;22004;-75
2021/11/20 05:42:08;;;;;;;9.50;4.50;;;;;;;11.38;73.05;100805.06;108394;1284;22021;-75
2021/11/20 05:44:39;;;;;;;8.60;5.10;;;;;;;11.38;73.19;100808.66;108487;1284;22436;-75
2021/11/20 05:47:13;;;;;;;8.50;4.40;;;;;;;11.36;73.23;100811.97;108495;1283;22049;-74
2021/11/20 05:49:44;;;;;;;8.10;5.10;;;;;;;11.37;73.34;100815.08;108430;1284;22133;-76
2021/11/20 05:52:19;;;;;;;9.40;6.10;;;;;;;11.39;73.54;100814.86;108560;1278;22075;-76
2021/11/20 05:54:50;;;;;;;8.10;4.70;;;;;;;11.43;73.61;100821.47;108944;1278;21976;-76
2021/11/20 05:57:27;;;;;;;8.10;4.30;;;;;;;11.44;73.59;100823.35;108878;1278;22768;-75
2021/11/20 06:00:22;;;;;;;8.30;4.50;;;;;;;11.44;73.37;100822.66;108876;1278;21988;-75
2021/11/20 06:02:56;;;;;;;11.20;5.20;;;;;;;11.44;73.46;100820.74;108845;1278;22004;-75
2021/11/20 06:05:45;;;;;;;11.10;5.80;;;;;;;11.44;73.59;100822.98;108937;1278;23078;-74
2021/11/20 06:08:16;;;;;;;9.00;5.20;;;;;;;11.46;73.58;100821.38;108831;1277;22758;-74
2021/11/20 06:10:47;;;;;;;6.50;5.30;;;;;;;11.47;73.58;100825.45;108845;1278;21992;-74
2021/11/20 06:13:19;;;;;;;6.20;4.60;;;;;;;11.49;73.48;100828.77;108792;1278;23745;-75
2021/11/20 06:15:57;;;;;;;7.00;4.80;;;;;;;11.50;73.53;100829.89;108919;1278;22200;-76
2021/11/20 06:18:33;;;;;;;5.90;4.50;;;;;;;11.51;73.42;100831.95;108708;1278;23201;-75
2021/11/20 06:21:06;;;;;;;8.80;4.80;;;;;;;11.49;73.42;100836.08;108803;1278;23012;-75
2021/11/20 06:23:38;;;;;;;9.30;4.60;;;;;;;11.48;73.58;100835.14;108748;1278;21992;-73
2021/11/20 06:26:11;;;;;;;6.80;4.30;;;;;;;11.46;73.52;100839.70;108824;1278;23682;-75
2021/11/20 06:28:40;;;;;;;8.50;4.60;;;;;;;11.45;73.57;100852.70;108485;1284;23842;-74
2021/11/20 06:31:21;;;;;;;9.00;5.80;;;;;;;11.44;73.64;100846.47;108078;1286;22089;-74
2021/11/20 06:34:06;;;;;;;9.10;6.30;;;;;;;11.41;73.69;100850.10;108076;1289;22010;-75
2021/11/20 06:37:08;;;;;;;10.00;6.40;;;;;;;11.39;73.79;100854.23;107809;1289;22348;-74
2021/11/20 06:39:52;;;;;;;9.00;6.30;;;;;;;11.37;73.78;100857.07;107652;1294;22172;-75
2021/11/20 06:42:22;;;;;;;7.70;5.30;;;;;;;11.38;73.86;100853.60;107428;1294;198487;-76
2021/11/20 06:44:53;;;;;;;10.50;5.40;;;;;;;11.40;73.99;100856.62;107695;1295;22879;-75
2021/11/20 06:47:25;;;;;;;8.40;5.10;;;;;;;11.40;73.91;100860.24;107717;1295;22025;-75
2021/11/20 06:49:58;;;;;;;9.20;6.10;;;;;;;11.37;73.84;100862.39;107676;1292;25023;-75
2021/11/20 06:52:27;;;;;;;6.00;4.80;;;;;;;11.33;73.89;100866.08;107742;1293;22010;-76
2021/11/20 06:55:26;;;;;;;6.20;4.20;;;;;;;11.31;73.86;100863.70;107997;1287;22003;-75
2021/11/20 06:58:21;;;;;;;6.20;4.20;;;;;;;11.28;73.93;100864.65;108297;1284;22026;-75
2021/11/20 07:01:08;;;;;;;7.40;5.00;;;;;;;11.27;74.17;100870.56;108402;1282;23689;-76
2021/11/20 07:04:04;;;;;;;10.70;6.00;;;;;;;11.26;74.11;100873.16;108131;1287;23633;-75
2021/11/20 07:06:45;;;;;;;7.00;5.30;;;;;;;11.26;74.27;100876.04;107705;1291;23658;-76
2021/11/20 07:09:18;;;;;;;8.40;4.70;;;;;;;11.25;74.24;100875.77;107950;1291;23068;-76
2021/11/20 07:11:54;;;;;;;7.90;5.60;;;;;;;11.24;74.31;100878.98;107703;1291;23677;-75
2021/11/20 07:14:25;;;;;;;9.50;5.10;;;;;;;11.25;74.34;100884.70;107765;1291;23225;-76
2021/11/20 07:16:58;;;;;;;9.50;4.90;;;;;;;11.28;74.57;100883.19;107733;1291;22015;-76
2021/11/20 07:19:34;;;;;;;8.40;5.00;;;;;;;11.31;74.48;100885.38;107912;1291;23757;-76
2021/11/20 07:22:29;;;;;;;9.30;5.00;;;;;;;11.33;74.56;100888.14;108133;1288;21995;-77
2021/11/20 07:25:13;;;;;;;5.90;4.00;;;;;;;11.37;74.51;100886.86;108281;1284;22755;-76
2021/11/20 07:27:45;;;;;;;8.10;4.60;;;;;;;11.40;74.33;100889.25;108451;1284;21997;-76
2021/11/20 07:30:17;;;;;;;14.10;6.50;;;;;;;11.43;74.45;100892.27;108500;1284;22020;-76
2021/11/20 07:32:50;;;;;;;7.50;5.50;;;;;;;11.45;74.45;100889.40;108680;1278;22007;-76
2021/11/20 07:35:40;;;;;;;7.20;4.80;;;;;;;11.48;74.51;100888.48;108778;1278;21973;-76
2021/11/20 07:38:18;;;;;;;6.00;4.70;;;;;;;11.51;74.46;100891.02;108539;1282;23706;-75
2021/11/20 07:40:48;;;;;;;7.80;4.70;;;;;;;11.55;74.41;100891.68;108137;1287;21991;-76
2021/11/20 07:43:21;;;;;;;5.30;4.80;;;;;;;11.59;74.37;100893.20;108396;1287;22527;-75
2021/11/20 07:46:09;;;;;;;7.20;4.70;;;;;;;11.63;74.44;100893.80;108273;1288;23042;-75
2021/11/20 07:48:45;;;;;;;6.30;4.60;;;;;;;11.69;74.41;100893.35;108295;1286;22809;-75
2021/11/20 07:51:19;;;;;;;8.00;4.90;;;;;;;11.72;74.03;100890.27;108072;1288;23586;-75
2021/11/20 07:53:52;;;;;;;8.40;5.20;;;;;;;11.72;74.06;100898.23;108211;1287;22021;-75
2021/11/20 07:56:27;;;;;;;9.40;5.90;;;;;;;11.73;74.05;100899.81;107777;1291;23035;-75
2021/11/20 07:59:00;;;;;;;8.10;5.70;;;;;;;11.77;74.23;100904.67;107659;1292;21990;-75
2021/11/20 08:01:29;;;;;;;8.00;5.60;;;;;;;11.79;73.97;100908.16;108036;1291;21992;-75
2021/11/20 08:04:08;;;;;;;8.60;5.30;;;;;;;11.84;74.06;100911.77;107870;1291;21998;-75
2021/11/20 08:06:52;;;;;;;6.00;4.30;;;;;;;11.87;73.97;100909.83;107994;1289;21997;-75
2021/11/20 08:09:36;;;;;;;6.00;4.40;;;;;;;11.90;73.81;100905.70;108136;1288;23127;-75
2021/11/20 08:12:14;;;;;;;7.80;4.10;;;;;;;11.94;73.79;100907.92;108100;1288;21986;-75
2021/11/20 08:15:06;;;;;;;5.80;4.20;;;;;;;11.95;73.47;100912.66;108310;1283;22042;-75
2021/11/20 08:18:00;;;;;;;6.60;4.30;;;;;;;11.94;73.43;100911.95;108089;1289;23085;-75
2021/11/20 08:20:46;;;;;;;11.40;4.90;;;;;;;11.97;73.47;100914.41;108180;1289;23165;-75
2021/11/20 08:23:35;;;;;;;15.00;4.90;;;;;;;12.00;73.31;100907.63;108504;1283;22015;-76
2021/11/20 08:26:14;;;;;;;8.30;4.80;;;;;;;12.05;73.32;100900.42;108572;1283;23131;-76
2021/11/20 08:28:44;;;;;;;14.80;5.60;;;;;;;12.11;73.47;100892.31;108450;1283;21993;-76
2021/11/20 08:31:19;;;;;;;6.00;4.30;;;;;;;12.20;73.47;100891.66;108151;1289;22033;-75
2021/11/20 08:34:18;;;;;;;7.70;4.50;;;;;;;12.26;72.97;100890.11;107660;1294;23857;-75
2021/11/20 08:37:14;;;;;;;7.10;4.60;;;;;;;12.28;72.69;100887.42;107994;1290;23705;-76
2021/11/20 08:39:51;;;;;;;5.30;4.50;;;;;;;12.32;72.61;100885.34;108242;1288;22016;-76
2021/11/20 08:42:26;;;;;;;7.90;4.40;;;;;;;12.36;72.56;100889.78;108109;1288;22002;-76
2021/11/20 08:44:55;;;;;;;8.50;3.90;;;;;;;12.41;72.58;100890.59;108058;1289;22533;-76
2021/11/20 08:47:33;;;;;;;8.30;3.80;;;;;;;12.48;72.44;100895.29;108169;1288;22021;-76
2021/11/20 08:50:16;;;;;;;5.50;4.80;;;;;;;12.54;72.23;100898.24;108257;1285;22066;-76
2021/11/20 08:52:51;;;;;;;7.40;4.60;;;;;;;12.59;71.98;100899.16;108354;1285;22002;-75
2021/11/20 08:55:26;;;;;;;7.90;4.70;;;;;;;12.65;72.05;100898.99;108343;1285;22757;-76
2021/11/20 08:58:08;;;;;;;9.60;5.00;;;;;;;12.78;72.30;100896.65;108284;1283;21999;-76
2021/11/20 09:00:50;;;;;;;7.30;3.90;;;;;;;12.88;71.86;100902.17;108216;1283;23476;-76
2021/11/20 09:03:48;;;;;;;7.00;4.00;;;;;;;12.93;71.42;100899.93;108436;1283;21984;-76
2021/11/20 09:06:47;;;;;;;5.80;4.70;;;;;;;12.94;70.87;100899.98;108632;1282;23637;-75
2021/11/20 09:09:55;;;;;;;7.10;4.80;;;;;;;12.93;70.77;100901.20;108562;1283;22223;-75
2021/11/20 09:12:35;;;;;;;7.10;4.30;;;;;;;13.00;70.89;100898.52;108194;1289;22103;-76
2021/11/20 09:15:13;;;;;;;4.90;4.10;;;;;;;13.03;70.63;100901.52;108091;1291;23094;-76
2021/11/20 09:17:49;;;;;;;5.10;4.30;;;;;;;13.04;70.45;100901.96;108120;1288;24378;-76
2021/11/20 09:20:31;;;;;;;8.20;4.50;;;;;;;13.05;70.35;100904.65;108107;1288;23794;-76
2021/11/20 09:23:06;;;;;;;7.00;4.50;;;;;;;13.09;70.38;100900.67;108104;1288;21985;-76
2021/11/20 09:25:55;;;;;;;6.80;4.40;;;;;;;13.12;70.12;100907.60;108121;1288;23056;-76
2021/11/20 09:28:46;;;;;;;5.60;4.50;;;;;;;13.12;70.11;100912.02;108190;1286;23180;-76
2021/11/20 09:31:19;;;;;;;7.40;4.70;;;;;;;13.14;70.06;100911.05;108621;1278;22528;-76
2021/11/20 09:33:52;;;;;;;7.10;4.00;;;;;;;13.13;69.86;100916.48;108567;1276;21977;-77
2021/11/20 09:36:24;;;;;;;5.90;3.50;;;;;;;13.12;69.61;100912.70;108306;1283;22762;-76
2021/11/20 09:39:15;;;;;;;5.50;4.10;;;;;;;13.08;69.49;100908.41;108439;1283;22013;-76
2021/11/20 09:41:56;;;;;;;5.80;3.80;;;;;;;13.08;69.77;100910.37;108488;1283;23035;-75
2021/11/20 09:44:33;;;;;;;7.70;4.10;;;;;;;13.10;69.85;100910.13;108553;1283;21995;-76
2021/11/20 09:47:37;;;;;;;4.30;3.90;;;;;;;13.09;69.49;100906.15;108690;1283;24378;-75
2021/11/20 09:50:17;;;;;;;6.00;3.90;;;;;;;13.03;69.27;100902.73;108463;1283;22382;-75
2021/11/20 09:52:50;;;;;;;5.40;4.30;;;;;;;12.99;69.25;100908.73;108472;1283;23040;-77
2021/11/20 09:55:29;;;;;;;5.20;4.30;;;;;;;12.94;69.32;100907.98;108717;1278;22208;-77
2021/11/20 09:58:08;;;;;;;4.60;3.70;;;;;;;12.90;69.44;100901.40;108522;1281;24046;-76
2021/11/20 10:01:23;;;;;;;6.40;4.40;;;;;;;12.86;69.67;100899.92;108504;1282;23357;-77
2021/11/20 10:04:01;;;;;;;6.60;5.20;;;;;;;12.83;70.08;100894.55;108458;1288;22062;-76
2021/11/20 10:06:41;;;;;;;6.20;3.90;;;;;;;12.80;70.05;100887.60;108164;1288;22147;-77
2021/11/20 10:09:21;;;;;;;5.30;4.30;;;;;;;12.73;70.21;100882.59;108215;1288;21983;-76
2021/11/20 10:12:20;;;;;;;8.60;5.90;;;;;;;12.72;70.98;100882.85;108097;1291;23802;-76
2021/11/20 10:15:02;;;;;;;7.30;5.30;;;;;;;12.77;71.53;100877.23;108221;1291;22002;-76
2021/11/20 10:17:48;;;;;;;5.90;5.30;;;;;;;12.82;71.85;100873.80;108122;1289;23795;-76
2021/11/20 10:20:27;;;;;;;6.40;5.20;;;;;;;12.94;72.20;100874.20;108224;1288;22031;-76
2021/11/20 10:23:26;;;;;;;7.10;4.70;;;;;;;13.03;71.85;100866.86;108095;1289;23062;-75
2021/11/20 10:26:30;;;;;;;4.90;4.40;;;;;;;13.03;71.46;100859.81;108126;1288;24149;-76
2021/11/20 10:29:27;;;;;;;5.90;5.00;;;;;;;12.99;71.52;100854.59;107975;1292;24420;-76
2021/11/20 10:32:17;;;;;;;7.30;5.30;;;;;;;12.97;71.55;100854.48;108085;1291;22001;-76
2021/11/20 10:34:58;;;;;;;4.60;3.70;;;;;;;12.94;71.24;100848.45;107555;1294;23070;-76
2021/11/20 10:37:42;;;;;;;4.10;3.70;;;;;;;12.87;71.26;100848.78;107525;1295;22011;-76
2021/11/20 10:40:46;;;;;;;5.20;4.20;;;;;;;12.82;71.31;100851.16;107599;1294;21999;-76
2021/11/20 10:43:53;;;;;;;4.20;3.70;;;;;;;12.76;71.31;100846.31;108178;1289;22093;-77
2021/11/20 10:46:44;;;;;;;4.40;3.70;;;;;;;12.73;71.42;100852.36;107717;1288;22025;-76
2021/11/20 10:49:43;;;;;;;7.00;3.90;;;;;;;12.69;71.30;100853.10;108238;1288;23740;-75
2021/11/20 10:53:00;;;;;;;7.50;4.80;;;;;;;12.67;71.56;100854.52;108280;1284;22876;-77
2021/11/20 10:56:05;;;;;;;6.20;3.80;;;;;;;12.69;71.74;100848.55;108378;1284;23087;-77
2021/11/20 10:59:32;;;;;;;5.90;4.60;;;;;;;12.69;71.55;100846.61;108554;1284;22857;-76
2021/11/20 11:02:50;;;;;;;5.70;4.00;;;;;;;12.72;71.67;100840.73;108526;1285;22053;-76
2021/11/20 11:06:05;;;;;;;5.90;4.50;;;;;;;12.74;71.45;100842.01;108179;1290;23623;-75
2021/11/20 11:08:48;;;;;;;6.50;4.00;;;;;;;12.72;71.28;100844.44;108237;1289;23077;-77
2021/11/20 11:11:45;;;;;;;6.00;4.30;;;;;;;12.71;71.14;100840.33;108179;1289;21998;-75
2021/11/20 11:14:49;;;;;;;9.60;6.60;;;;;;;12.68;70.94;100838.59;108161;1289;23701;-76
2021/11/20 11:18:19;;;;;;;5.90;5.20;;;;;;;12.65;71.04;100836.20;108000;1294;21998;-75
2021/11/20 11:21:03;;;;;;;8.60;5.10;;;;;;;12.63;71.01;100829.71;107400;1298;22100;-76
2021/11/20 11:24:26;;;;;;;5.90;4.20;;;;;;;12.59;70.82;100826.44;107761;1291;22955;-76
2021/11/20 11:27:35;;;;;;;6.30;5.00;;;;;;;12.54;71.00;100828.52;108179;1289;22072;-76
2021/11/20 11:30:15;;;;;;;6.10;4.20;;;;;;;12.49;71.01;100825.11;108234;1288;22167;-77
2021/11/20 11:32:46;;;;;;;5.90;4.80;;;;;;;12.45;71.05;100829.26;108161;1289;23053;-76
2021/11/20 11:35:48;;;;;;;6.50;4.70;;;;;;;12.41;71.11;100828.67;107807;1289;22016;-76
2021/11/20 11:38:45;;;;;;;5.90;3.90;;;;;;;12.34;71.24;100826.29;107685;1291;22007;-75
2021/11/20 11:41:26;;;;;;;5.80;4.60;;;;;;;12.29;71.53;100825.00;108140;1291;23687;-76
2021/11/20 11:44:36;;;;;;;5.20;4.70;;;;;;;12.26;71.59;100820.60;107840;1291;22047;-76
2021/11/20 11:48:11;;;;;;;7.60;5.90;;;;;;;12.21;71.88;100818.31;108229;1291;24474;-77
2021/11/20 11:51:02;;;;;;;7.40;6.70;;;;;;;12.17;72.33;100810.81;107830;1291;23624;-77
2021/11/20 11:53:58;;;;;;;7.10;6.40;;;;;;;12.15;72.33;100802.54;108244;1285;23730;-76
2021/11/20 11:56:35;;;;;;;8.40;7.20;;;;;;;12.12;72.53;100800.02;108281;1285;23024;-76
2021/11/20 11:59:35;;;;;;;9.90;7.80;;;;;;;12.11;72.70;100797.08;108464;1285;23587;-76
2021/11/20 12:02:30;;;;;;;7.70;6.80;;;;;;;12.11;72.90;100794.50;108448;1285;21981;-77
2021/11/20 12:05:25;;;;;;;7.10;6.40;;;;;;;12.09;72.92;100794.77;108465;1285;23593;-76
2021/11/20 12:08:06;;;;;;;7.30;6.00;;;;;;;12.08;73.06;100790.98;108398;1285;22004;-77
2021/11/20 12:11:05;;;;;;;7.10;5.40;;;;;;;12.08;73.09;100790.42;108376;1285;22919;-76
2021/11/20 12:13:53;;;;;;;6.40;5.40;;;;;;;12.06;73.21;100784.98;108406;1285;24426;-77
2021/11/20 12:16:53;;;;;;;6.70;6.00;;;;;;;12.06;73.37;100782.98;108359;1285;23071;-75
2021/11/20 12:20:06;;;;;;;7.30;6.50;;;;;;;12.03;73.24;100779.08;108243;1288;21998;-75
2021/11/20 12:22:52;;;;;;;8.60;7.10;;;;;;;12.01;73.56;100774.38;108393;1287;22002;-76
2021/11/20 12:25:56;;;;;;;7.50;6.80;;;;;;;12.03;73.66;100766.80;108371;1288;21986;-76